createdAt,value
2018-07-02T00:00:02.614Z,73.90
2018-07-02T00:02:30.943Z,74.50
2018-07-02T00:07:27.901Z,74.10
2018-07-02T00:09:56.165Z,73.90
2018-07-02T00:12:24.854Z,73.30
2018-07-02T00:17:21.758Z,70.00
2018-07-02T00:19:49.928Z,69.50
2018-07-02T00:22:18.091Z,69.10
2018-07-02T00:24:46.379Z,69.60
2018-07-02T00:27:14.546Z,70.70
2018-07-02T00:29:42.715Z,69.30
2018-07-02T00:32:10.882Z,71.90
2018-07-02T00:34:39.180Z,69.40
2018-07-02T00:37:07.368Z,69.30
2018-07-02T00:39:35.553Z,69.90
2018-07-02T00:42:03.738Z,71.10
2018-07-02T00:44:32.544Z,70.60
2018-07-02T00:47:00.755Z,70.30
2018-07-02T00:49:28.928Z,70.10
2018-07-02T00:51:57.089Z,71.10
2018-07-02T00:54:25.409Z,71.60
2018-07-02T00:56:53.736Z,71.60
2018-07-02T00:59:21.908Z,71.10
2018-07-02T01:01:50.116Z,71.50
2018-07-02T01:04:18.357Z,71.20
2018-07-02T01:06:46.531Z,72.30
2018-07-02T01:09:14.730Z,72.30
2018-07-02T01:11:42.919Z,72.30
2018-07-02T01:14:11.156Z,73.00
2018-07-02T01:16:39.346Z,73.00
2018-07-02T01:19:07.526Z,73.20
2018-07-02T01:21:35.697Z,73.30
2018-07-02T01:24:03.979Z,74.30
2018-07-02T01:26:32.151Z,74.50
2018-07-02T01:29:00.323Z,74.40
2018-07-02T01:31:28.524Z,74.50
2018-07-02T01:33:56.768Z,75.10
2018-07-02T01:36:24.952Z,75.30
2018-07-02T01:38:54.012Z,74.80
2018-07-02T01:41:22.208Z,74.90
2018-07-02T01:43:50.495Z,75.20
2018-07-02T01:46:18.660Z,74.90
2018-07-02T01:48:46.819Z,75.60
2018-07-02T01:51:14.992Z,75.40
2018-07-02T01:53:43.292Z,75.60
2018-07-02T01:56:11.474Z,75.90
2018-07-02T01:58:39.644Z,75.60
2018-07-02T02:01:07.843Z,75.20
2018-07-02T02:03:36.059Z,75.00
2018-07-02T02:06:04.512Z,74.90
2018-07-02T02:08:32.684Z,74.30
2018-07-02T02:11:00.860Z,75.90
2018-07-02T02:13:29.096Z,75.00
2018-07-02T02:15:57.291Z,74.50
2018-07-02T02:18:26.167Z,74.90
2018-07-02T02:20:54.549Z,75.00
2018-07-02T02:23:22.795Z,75.60
2018-07-02T02:25:50.988Z,74.90
2018-07-02T02:28:19.181Z,75.70
2018-07-02T02:30:47.416Z,74.60
2018-07-02T02:33:15.679Z,75.30
2018-07-02T02:35:43.835Z,75.50
2018-07-02T02:38:12.026Z,75.80
2018-07-02T02:40:40.184Z,75.60
2018-07-02T02:43:08.384Z,76.20
2018-07-02T02:45:36.660Z,75.60
2018-07-02T02:48:04.835Z,76.40
2018-07-02T02:50:33.033Z,76.60
2018-07-02T02:53:01.268Z,77.10
2018-07-02T02:55:29.440Z,78.10
2018-07-02T02:57:57.625Z,77.50
2018-07-02T03:00:26.385Z,79.90
2018-07-02T03:02:54.590Z,81.50
2018-07-02T03:05:22.758Z,82.40
2018-07-02T03:07:50.924Z,81.60
2018-07-02T03:10:19.130Z,81.70
2018-07-02T03:12:48.109Z,82.30
2018-07-02T03:15:16.283Z,82.50
2018-07-02T03:17:44.461Z,83.30
2018-07-02T03:20:12.728Z,84.00
2018-07-02T03:22:40.883Z,83.20
2018-07-02T03:25:09.060Z,84.70
2018-07-02T03:27:37.342Z,84.10
2018-07-02T03:30:05.827Z,84.30
2018-07-02T03:32:33.980Z,84.50
2018-07-02T03:35:02.179Z,84.10
2018-07-02T03:37:30.426Z,84.20
2018-07-02T03:39:58.628Z,85.30
2018-07-02T03:42:26.891Z,85.70
2018-07-02T03:44:55.167Z,85.50
2018-07-02T03:47:23.456Z,86.20
2018-07-02T03:49:51.636Z,86.60
2018-07-02T03:52:19.818Z,87.50
2018-07-02T03:54:48.100Z,87.50
2018-07-02T03:57:16.281Z,88.60
2018-07-02T03:59:44.471Z,88.20
2018-07-02T04:02:12.655Z,88.60
2018-07-02T04:07:08.864Z,89.90
2018-07-02T04:09:37.064Z,90.40
2018-07-02T04:12:05.223Z,90.20
2018-07-02T04:14:33.464Z,90.40
2018-07-02T04:17:01.629Z,90.50
2018-07-02T04:19:30.299Z,90.60
2018-07-02T04:21:59.376Z,90.80
2018-07-02T04:26:55.704Z,90.20
2018-07-02T04:29:23.888Z,91.10
2018-07-02T04:31:52.084Z,90.70
2018-07-02T04:34:20.271Z,91.60
2018-07-02T04:36:48.435Z,91.20
2018-07-02T04:39:16.599Z,90.90
2018-07-02T04:44:12.784Z,91.30
2018-07-02T04:46:40.946Z,92.00
2018-07-02T04:49:09.107Z,92.00
2018-07-02T04:51:37.338Z,91.70
2018-07-02T04:54:05.562Z,91.80
2018-07-02T04:56:33.747Z,91.40
2018-07-02T04:59:01.936Z,91.30
2018-07-02T05:01:30.127Z,91.40
2018-07-02T05:03:58.364Z,91.50
2018-07-02T05:06:26.627Z,91.40
2018-07-02T05:08:54.951Z,91.90
2018-07-02T05:11:23.004Z,92.00
2018-07-02T05:13:51.440Z,91.70
2018-07-02T05:16:19.604Z,91.80
2018-07-02T05:21:15.703Z,92.20
2018-07-02T05:23:43.960Z,92.30
2018-07-02T05:26:12.121Z,92.30
2018-07-02T05:28:40.302Z,92.50
2018-07-02T05:31:08.516Z,92.80
2018-07-02T05:33:36.755Z,93.00
2018-07-02T05:36:05.320Z,93.00
2018-07-02T05:38:33.685Z,93.30
2018-07-02T05:41:01.676Z,93.80
2018-07-02T05:43:30.499Z,93.50
2018-07-02T05:45:58.683Z,93.70
2018-07-02T05:48:26.877Z,93.90
2018-07-02T05:50:55.033Z,93.70
2018-07-02T05:53:23.245Z,93.90
2018-07-02T05:55:51.452Z,94.00
2018-07-02T05:58:19.672Z,93.80
2018-07-02T06:03:15.859Z,93.10
2018-07-02T06:05:44.044Z,92.10
2018-07-02T06:08:12.222Z,90.30
2018-07-02T06:10:40.392Z,83.60
2018-07-02T06:13:08.660Z,80.00
2018-07-02T06:15:36.815Z,75.80
2018-07-02T06:18:04.993Z,70.90
2018-07-02T06:20:33.151Z,69.40
2018-07-02T06:23:01.447Z,67.30
2018-07-02T06:25:29.653Z,63.50
2018-07-02T06:27:57.821Z,62.80
2018-07-02T06:30:26.053Z,62.10
2018-07-02T06:32:54.232Z,60.00
2018-07-02T06:35:22.435Z,60.00
2018-07-02T06:37:50.604Z,60.10
2018-07-02T06:40:18.903Z,58.90
2018-07-02T06:42:47.144Z,58.20
2018-07-02T06:45:15.341Z,58.60
2018-07-02T06:47:43.516Z,58.70
2018-07-02T06:50:12.160Z,55.90
2018-07-02T06:52:40.333Z,57.30
2018-07-02T06:55:08.521Z,56.60
2018-07-02T06:57:36.689Z,55.70
2018-07-02T07:00:05.787Z,54.70
2018-07-02T07:02:33.964Z,55.50
2018-07-02T07:05:02.238Z,54.00
2018-07-02T07:07:30.428Z,52.10
2018-07-02T07:09:58.600Z,51.50
2018-07-02T07:12:26.764Z,51.10
2018-07-02T07:14:54.943Z,51.70
2018-07-02T07:17:23.133Z,51.10
2018-07-02T07:19:51.299Z,52.30
2018-07-02T07:22:19.519Z,51.60
2018-07-02T07:27:15.715Z,51.30
2018-07-02T07:29:43.902Z,52.30
2018-07-02T07:32:12.117Z,52.40
2018-07-02T07:34:40.496Z,54.30
2018-07-02T07:39:36.665Z,54.20
2018-07-02T07:42:04.854Z,53.80
2018-07-02T07:44:33.124Z,55.00
2018-07-02T07:47:01.293Z,55.60
2018-07-02T07:49:31.824Z,56.80
2018-07-02T07:51:59.994Z,57.70
2018-07-02T07:54:28.380Z,57.40
2018-07-02T07:56:56.553Z,56.80
2018-07-02T07:59:24.777Z,58.10
2018-07-02T08:01:52.912Z,59.10
2018-07-02T08:04:21.180Z,62.10
2018-07-02T08:06:49.345Z,59.70
2018-07-02T08:09:17.520Z,60.90
2018-07-02T08:11:45.796Z,62.30
2018-07-02T08:14:14.040Z,62.30
2018-07-02T08:16:42.225Z,60.40
2018-07-02T08:19:10.382Z,61.80
2018-07-02T08:24:06.612Z,61.90
2018-07-02T08:29:02.815Z,59.20
2018-07-02T08:31:31.616Z,56.80
2018-07-02T08:33:59.860Z,58.80
2018-07-02T08:36:28.421Z,57.10
2018-07-02T08:41:24.535Z,54.10
2018-07-02T08:43:53.036Z,54.70
2018-07-02T08:46:21.307Z,55.00
2018-07-02T08:51:17.433Z,54.10
2018-07-02T08:53:45.654Z,53.50
2018-07-02T08:56:13.860Z,53.50
2018-07-02T08:58:42.026Z,54.70
2018-07-02T09:01:10.196Z,54.20
2018-07-02T09:03:38.479Z,55.10
2018-07-02T09:06:06.683Z,54.50
2018-07-02T09:08:34.877Z,55.70
2018-07-02T09:13:31.068Z,53.60
2018-07-02T09:15:59.251Z,52.00
2018-07-02T09:18:27.435Z,53.90
2018-07-02T09:20:55.621Z,53.20
2018-07-02T09:25:51.789Z,53.20
2018-07-02T09:28:19.996Z,53.20
2018-07-02T09:30:48.164Z,53.70
2018-07-02T09:33:16.431Z,54.00
2018-07-02T09:35:44.616Z,53.90
2018-07-02T09:38:12.835Z,52.00
2018-07-02T09:45:37.028Z,53.70
2018-07-02T09:48:05.321Z,54.50
2018-07-02T09:50:33.496Z,52.80
2018-07-02T09:53:01.700Z,53.00
2018-07-02T09:55:29.928Z,53.50
2018-07-02T09:57:58.120Z,54.00
2018-07-02T10:02:54.379Z,54.30
2018-07-02T10:07:50.496Z,52.40
2018-07-02T10:10:18.735Z,54.40
2018-07-02T10:12:46.889Z,54.70
2018-07-02T10:15:15.053Z,54.50
2018-07-02T10:17:43.243Z,52.90
2018-07-02T10:20:11.418Z,54.70
2018-07-02T10:22:39.693Z,52.80
2018-07-02T10:25:07.891Z,53.30
2018-07-02T10:27:36.077Z,52.10
2018-07-02T10:30:04.605Z,50.10
2018-07-02T10:32:32.792Z,50.30
2018-07-02T10:35:01.068Z,50.10
2018-07-02T10:37:29.477Z,51.50
2018-07-02T10:39:57.762Z,49.00
2018-07-02T10:42:25.968Z,50.30
2018-07-02T10:47:22.155Z,49.40
2018-07-02T10:49:50.839Z,51.40
2018-07-02T10:52:19.048Z,49.00
2018-07-02T10:54:47.302Z,49.80
2018-07-02T10:57:15.510Z,50.00
2018-07-02T11:02:11.644Z,52.50
2018-07-02T11:04:39.864Z,51.10
2018-07-02T11:07:08.041Z,50.30
2018-07-02T11:09:36.214Z,50.90
2018-07-02T11:12:04.407Z,49.40
2018-07-02T11:14:32.664Z,50.10
2018-07-02T11:17:00.880Z,49.50
2018-07-02T11:19:29.631Z,46.40
2018-07-02T11:27:00.776Z,49.50
2018-07-02T11:29:29.472Z,50.80
2018-07-02T11:31:57.660Z,50.10
2018-07-02T11:34:25.959Z,47.20
2018-07-02T11:36:54.189Z,48.20
2018-07-02T11:39:22.368Z,47.90
2018-07-02T11:41:50.544Z,49.50
2018-07-02T11:44:18.852Z,48.60
2018-07-02T11:46:47.136Z,46.50
2018-07-02T11:49:15.453Z,48.50
2018-07-02T11:56:39.961Z,49.50
2018-07-02T11:59:08.123Z,48.00
2018-07-02T12:01:36.313Z,46.90
2018-07-02T12:04:04.685Z,46.30
2018-07-02T12:06:32.846Z,46.90
2018-07-02T12:09:01.044Z,47.30
2018-07-02T12:13:58.253Z,47.40
2018-07-02T12:16:26.438Z,49.50
2018-07-02T12:18:54.654Z,47.80
2018-07-02T12:23:51.973Z,48.80
2018-07-02T12:26:20.193Z,47.50
2018-07-02T12:28:48.365Z,48.60
2018-07-02T12:31:16.540Z,46.40
2018-07-02T12:36:12.725Z,47.60
2018-07-02T12:38:40.927Z,49.00
2018-07-02T12:41:09.168Z,47.80
2018-07-02T12:43:37.425Z,47.60
2018-07-02T12:46:05.852Z,48.20
2018-07-02T12:48:34.037Z,47.40
2018-07-02T12:51:02.206Z,48.40
2018-07-02T12:53:30.479Z,46.40
2018-07-02T12:55:58.663Z,45.70
2018-07-02T12:58:26.920Z,46.30
2018-07-02T13:00:55.125Z,45.20
2018-07-02T13:03:23.452Z,47.50
2018-07-02T13:05:51.624Z,47.70
2018-07-02T13:08:19.803Z,47.50
2018-07-02T13:10:47.996Z,45.80
2018-07-02T13:13:16.299Z,44.00
2018-07-02T13:15:44.540Z,45.20
2018-07-02T13:18:12.750Z,46.30
2018-07-02T13:20:40.939Z,48.10
2018-07-02T13:25:37.168Z,46.20
2018-07-02T13:28:05.365Z,46.80
2018-07-02T13:30:33.568Z,45.80
2018-07-02T13:33:01.869Z,45.90
2018-07-02T13:35:30.113Z,47.80
2018-07-02T13:37:58.290Z,48.50
2018-07-02T13:40:26.464Z,47.30
2018-07-02T13:42:54.755Z,48.40
2018-07-02T13:45:22.952Z,47.80
2018-07-02T13:47:51.123Z,46.40
2018-07-02T13:50:19.291Z,47.70
2018-07-02T13:52:47.523Z,46.00
2018-07-02T13:55:15.803Z,47.70
2018-07-02T14:00:11.887Z,46.10
2018-07-02T14:02:40.085Z,49.20
2018-07-02T14:05:08.308Z,48.70
2018-07-02T14:07:36.574Z,50.30
2018-07-02T14:10:04.900Z,50.90
2018-07-02T14:12:33.136Z,51.80
2018-07-02T14:15:01.394Z,51.50
2018-07-02T14:17:29.579Z,50.20
2018-07-02T14:19:57.799Z,47.50
2018-07-02T14:22:25.944Z,48.60
2018-07-02T14:24:54.298Z,51.00
2018-07-02T14:27:22.530Z,52.70
2018-07-02T14:29:50.756Z,51.90
2018-07-02T14:32:18.940Z,52.50
2018-07-02T14:34:47.203Z,50.80
2018-07-02T14:37:15.436Z,49.60
2018-07-02T14:42:11.625Z,49.00
2018-07-02T14:44:40.151Z,49.50
2018-07-02T14:47:08.385Z,50.90
2018-07-02T14:49:36.572Z,51.50
2018-07-02T14:52:04.760Z,52.20
2018-07-02T14:54:33.067Z,52.80
2018-07-02T14:57:01.266Z,52.60
2018-07-02T14:59:29.434Z,52.60
2018-07-02T15:01:57.603Z,53.00
2018-07-02T15:04:25.908Z,52.20
2018-07-02T15:06:54.116Z,52.20
2018-07-02T15:09:22.292Z,52.90
2018-07-02T15:11:50.463Z,52.70
2018-07-02T15:14:18.691Z,52.80
2018-07-02T15:16:46.872Z,52.90
2018-07-02T15:19:15.040Z,52.80
2018-07-02T15:21:43.224Z,52.70
2018-07-02T15:24:11.577Z,51.20
2018-07-02T15:26:39.864Z,53.00
2018-07-02T15:29:08.042Z,53.80
2018-07-02T15:31:36.253Z,53.00
2018-07-02T15:34:04.845Z,53.00
2018-07-02T15:36:33.232Z,52.90
2018-07-02T15:41:29.395Z,53.40
2018-07-02T15:43:58.739Z,53.90
2018-07-02T15:46:26.951Z,52.90
2018-07-02T15:51:23.178Z,53.10
2018-07-02T15:53:51.417Z,52.00
2018-07-02T15:56:19.648Z,53.50
2018-07-02T16:01:15.796Z,53.90
2018-07-02T16:06:12.007Z,52.40
2018-07-02T16:08:40.691Z,54.20
2018-07-02T16:11:08.924Z,52.40
2018-07-02T16:13:37.241Z,52.10
2018-07-02T16:16:05.598Z,53.10
2018-07-02T16:18:33.985Z,51.60
2018-07-02T16:21:02.244Z,51.60
2018-07-02T16:23:31.356Z,53.40
2018-07-02T16:25:59.544Z,53.90
2018-07-02T16:28:27.828Z,53.80
2018-07-02T16:30:56.141Z,52.00
2018-07-02T16:33:24.448Z,52.60
2018-07-02T16:35:52.618Z,52.90
2018-07-02T16:38:20.813Z,52.20
2018-07-02T16:40:49.006Z,51.40
2018-07-02T16:43:17.259Z,51.40
2018-07-02T16:45:45.462Z,51.30
2018-07-02T16:50:41.667Z,52.00
2018-07-02T16:53:09.908Z,52.00
2018-07-02T16:55:38.152Z,51.00
2018-07-02T16:58:06.340Z,50.90
2018-07-02T17:03:02.896Z,51.00
2018-07-02T17:05:31.092Z,52.40
2018-07-02T17:07:59.260Z,52.80
2018-07-02T17:10:27.494Z,52.00
2018-07-02T17:12:55.726Z,51.40
2018-07-02T17:15:23.915Z,52.40
2018-07-02T17:17:52.101Z,51.40
2018-07-02T17:20:20.283Z,51.20
2018-07-02T17:22:48.584Z,51.70
2018-07-02T17:25:16.786Z,52.20
2018-07-02T17:27:45.001Z,52.70
2018-07-02T17:30:13.192Z,50.90
2018-07-02T17:32:41.412Z,52.20
2018-07-02T17:35:09.620Z,51.90
2018-07-02T17:37:37.842Z,53.00
2018-07-02T17:40:06.928Z,53.30
2018-07-02T17:45:03.279Z,55.10
2018-07-02T17:47:31.460Z,54.30
2018-07-02T17:49:59.652Z,54.80
2018-07-02T17:52:28.415Z,54.80
2018-07-02T17:55:11.512Z,54.80
2018-07-02T17:57:39.708Z,54.50
2018-07-02T18:00:07.915Z,56.00
2018-07-02T18:02:36.110Z,56.60
2018-07-02T18:05:04.737Z,56.60
2018-07-02T18:10:00.847Z,56.70
2018-07-02T18:12:29.085Z,57.10
2018-07-02T18:14:57.361Z,57.00
2018-07-02T18:17:25.556Z,57.50
2018-07-02T18:19:53.740Z,57.90
2018-07-02T18:22:21.980Z,58.30
2018-07-02T18:24:50.261Z,58.50
2018-07-02T18:27:19.029Z,59.30
2018-07-02T18:29:47.204Z,59.10
2018-07-02T18:32:15.391Z,60.30
2018-07-02T18:34:43.671Z,60.80
2018-07-02T18:37:11.877Z,61.10
2018-07-02T18:39:40.091Z,62.30
2018-07-02T18:42:08.278Z,60.30
2018-07-02T18:44:36.549Z,61.80
2018-07-02T18:47:04.916Z,63.00
2018-07-02T18:49:33.727Z,62.80
2018-07-02T18:52:01.912Z,63.60
2018-07-02T18:54:31.188Z,63.90
2018-07-02T18:56:59.476Z,64.70
2018-07-02T18:59:27.667Z,64.70
2018-07-02T19:01:55.881Z,66.60
2018-07-02T19:04:24.104Z,67.10
2018-07-02T19:06:52.277Z,68.10
2018-07-02T19:09:20.500Z,68.70
2018-07-02T19:11:48.690Z,69.90
2018-07-02T19:16:44.944Z,70.90
2018-07-02T19:19:13.128Z,72.00
2018-07-02T19:21:41.356Z,72.90
2018-07-02T19:24:10.460Z,74.30
2018-07-02T19:26:38.661Z,73.90
2018-07-02T19:29:06.938Z,75.60
2018-07-02T19:34:03.125Z,77.80
2018-07-02T19:36:31.336Z,79.30
2018-07-02T19:38:59.540Z,79.60
2018-07-02T19:41:27.750Z,81.20
2018-07-02T19:43:56.004Z,81.50
2018-07-02T19:46:24.375Z,82.20
2018-07-02T19:48:52.565Z,82.80
2018-07-02T19:51:20.768Z,83.90
2018-07-02T19:53:48.993Z,85.00
2018-07-02T19:56:17.264Z,84.80
2018-07-02T19:58:45.407Z,85.80
2018-07-02T20:01:13.616Z,86.40
2018-07-02T20:03:41.907Z,87.00
2018-07-02T20:06:10.100Z,87.20
2018-07-02T20:08:38.298Z,88.00
2018-07-02T20:11:06.523Z,88.80
2018-07-02T20:13:34.806Z,89.40
2018-07-02T20:16:03.039Z,90.10
2018-07-02T20:20:59.220Z,90.00
2018-07-02T20:23:27.520Z,90.00
2018-07-02T20:25:55.720Z,90.10
2018-07-02T20:28:23.944Z,90.20
2018-07-02T20:30:52.128Z,90.50
2018-07-02T20:33:20.379Z,90.60
2018-07-02T20:35:48.672Z,91.00
2018-07-02T20:38:16.911Z,90.90
2018-07-02T20:40:45.122Z,90.80
2018-07-02T20:43:13.405Z,91.00
2018-07-02T20:45:41.583Z,91.10
2018-07-02T20:48:09.791Z,91.10
2018-07-02T20:50:37.960Z,91.30
2018-07-02T20:53:06.210Z,91.40
2018-07-02T20:55:34.457Z,91.70
2018-07-02T20:58:02.661Z,91.90
2018-07-02T21:00:31.702Z,91.80
2018-07-02T21:03:01.212Z,92.00
2018-07-02T21:05:29.409Z,92.10
2018-07-02T21:07:57.752Z,92.30
2018-07-02T21:12:53.938Z,92.80
2018-07-02T21:15:22.793Z,92.80
2018-07-02T21:17:51.006Z,92.70
2018-07-02T21:20:19.227Z,93.00
2018-07-02T21:22:47.409Z,92.80
2018-07-02T21:27:43.548Z,92.10
2018-07-02T21:30:11.752Z,92.10
2018-07-02T21:32:39.936Z,92.10
2018-07-02T21:35:08.903Z,91.70
2018-07-02T21:37:37.124Z,91.80
2018-07-02T21:40:05.396Z,91.80
2018-07-02T21:42:33.617Z,91.50
2018-07-02T21:45:01.812Z,91.50
2018-07-02T21:47:30.025Z,91.50
2018-07-02T21:49:59.197Z,91.80
2018-07-02T21:52:27.367Z,91.30
2018-07-02T21:54:55.640Z,91.10
2018-07-02T21:57:23.828Z,90.60
2018-07-02T21:59:51.996Z,90.20
2018-07-02T22:02:20.180Z,90.40
2018-07-02T22:04:48.416Z,90.00
2018-07-02T22:07:16.633Z,88.60
2018-07-02T22:09:44.809Z,88.50
2018-07-02T22:12:13.018Z,88.90
2018-07-02T22:17:09.248Z,89.20
2018-07-02T22:19:37.425Z,89.10
2018-07-02T22:22:05.663Z,88.70
2018-07-02T22:24:33.934Z,90.10
2018-07-02T22:27:02.115Z,90.10
2018-07-02T22:29:30.321Z,90.00
2018-07-02T22:31:58.486Z,90.30
2018-07-02T22:34:27.051Z,90.70
2018-07-02T22:36:55.224Z,90.70
2018-07-02T22:39:29.940Z,90.90
2018-07-02T22:41:58.109Z,90.60
2018-07-02T22:44:26.381Z,90.80
2018-07-02T22:46:54.557Z,91.00
2018-07-02T22:49:22.732Z,90.80
2018-07-02T22:51:50.936Z,91.10
2018-07-02T22:54:19.158Z,91.00
2018-07-02T22:56:47.367Z,90.70
2018-07-02T22:59:15.574Z,90.90
2018-07-02T23:01:43.805Z,90.80
2018-07-02T23:04:11.970Z,91.20
2018-07-02T23:06:40.127Z,91.10
2018-07-02T23:09:09.405Z,90.90
2018-07-02T23:14:05.683Z,91.20
2018-07-02T23:16:33.921Z,91.70
2018-07-02T23:19:02.111Z,91.70
2018-07-02T23:21:30.291Z,91.70
2018-07-02T23:23:58.590Z,91.70
2018-07-02T23:26:26.756Z,92.10
2018-07-02T23:28:54.949Z,91.90
2018-07-02T23:31:23.135Z,92.10
2018-07-02T23:33:51.367Z,92.20
2018-07-02T23:36:19.559Z,92.30
2018-07-02T23:38:47.707Z,92.60
2018-07-02T23:41:15.880Z,92.70
2018-07-02T23:43:44.070Z,92.60
2018-07-02T23:46:12.261Z,93.10
2018-07-02T23:48:40.435Z,93.10
2018-07-02T23:51:08.597Z,93.40
2018-07-02T23:53:36.868Z,93.40
2018-07-02T23:56:05.292Z,93.80
2018-07-02T23:58:33.463Z,93.80
